หน้าหลัก
METAR-TAF:

METAR-TAF

ท่าอากาศยาน :

Show Low, แอริโซนา, สหรัฐอเมริกา

ละติจูด: 34-16N, ลองจิจูด: 110-00W, ความสูง: 1954 ม.

การสังเกตสภาพอากาศปัจจุบัน

รายงานได้ทำขึ้นเมื่อ 16 นาทีที่แล้ว ณ เวลา 15:15 UTC
ลมสงบ
อุณหภูมิ 28°C
ความชื้น 9%
ความกดอากาศ 1026 hPa
ทัศนวิสัย: 16.1 กม.
ท้องฟ้าแจ่มใส

METAR: KSOW 121515Z AUTO 00000KT 10SM CLR 28/M08 A3029 RMK AO2

เวลา: 08:31 (15:31 UTC)


TAF: หายไป

สังเกตการณ์สภาพอากาศและพยากรณ์อากาศของสนามบินมากกว่า 4000 แห่ง (รายงาน METAR และ TAF).

สถานีที่ดูได้จะแสดงไว้ด้วยจุดสีเหลืองและสีแดงบนแผนที่.

เลื่อนเมาส์ไปเหนือจุดเพื่อดูชื่อสถานี.

แล้วคลิกเพื่อดูสังเกตการณ์และการพยากรณ์สภาพอากาศ.

ในการเปลี่ยนแผนที่: คลิกที่ปุ่มสีเขียวที่มีกากบาทสีดำเพื่อซูมเข้า; ที่ปุ่มสีเขียวที่มีขีดเพื่อซูมออก; หรือที่ลูกศรสีเขียวเพื่อไปยังแผนที่ที่อยู่ติดกัน.


METAR-TAF: